createdAt,value
2018-11-04T00:01:56.280Z,4.05
2018-11-04T00:04:24.422Z,4.03
2018-11-04T00:06:52.565Z,4.02
2018-11-04T00:09:20.709Z,4.11
2018-11-04T00:11:48.823Z,4.15
2018-11-04T00:14:16.965Z,4.09
2018-11-04T00:16:45.105Z,4.10
2018-11-04T00:19:13.250Z,4.08
2018-11-04T00:21:41.389Z,4.10
2018-11-04T00:24:09.665Z,4.23
2018-11-04T00:26:37.677Z,4.18
2018-11-04T00:29:05.844Z,4.20
2018-11-04T00:31:33.981Z,4.20
2018-11-04T00:34:02.085Z,4.20
2018-11-04T00:36:30.258Z,4.19
2018-11-04T00:38:58.421Z,4.19
2018-11-04T00:41:26.537Z,4.17
2018-11-04T00:48:53.790Z,4.17
2018-11-04T00:51:21.900Z,4.17
2018-11-04T00:53:50.073Z,4.18
2018-11-04T00:56:18.204Z,4.11
2018-11-04T00:58:46.325Z,4.16
2018-11-04T01:01:14.430Z,4.18
2018-11-04T01:03:43.259Z,4.11
2018-11-04T01:06:11.365Z,4.18
2018-11-04T01:08:39.501Z,4.14
2018-11-04T01:11:07.648Z,4.06
2018-11-04T01:13:35.765Z,4.11
2018-11-04T01:16:03.889Z,4.11
2018-11-04T01:18:32.022Z,4.09
2018-11-04T01:21:00.179Z,4.08
2018-11-04T01:23:28.307Z,4.19
2018-11-04T01:25:56.436Z,4.19
2018-11-04T01:28:24.613Z,4.11
2018-11-04T01:30:52.758Z,4.16
2018-11-04T01:33:20.914Z,4.22
2018-11-04T01:35:49.059Z,4.24
2018-11-04T01:38:17.201Z,4.23
2018-11-04T01:40:45.351Z,4.18
2018-11-04T01:43:13.474Z,4.21
2018-11-04T01:45:41.607Z,4.26
2018-11-04T01:48:09.741Z,4.40
2018-11-04T01:50:37.894Z,4.36
2018-11-04T01:53:06.018Z,4.29
2018-11-04T01:55:34.169Z,4.32
2018-11-04T01:58:02.330Z,4.34
2018-11-04T02:00:30.460Z,4.33
2018-11-04T02:02:58.597Z,4.32
2018-11-04T02:05:26.727Z,4.39
2018-11-04T02:07:54.866Z,4.41
2018-11-04T02:10:23.032Z,4.38
2018-11-04T02:12:51.188Z,4.34
2018-11-04T02:15:19.328Z,4.28
2018-11-04T02:17:47.458Z,4.30
2018-11-04T02:20:15.567Z,4.34
2018-11-04T02:22:43.741Z,4.35
2018-11-04T02:25:13.247Z,4.30
2018-11-04T02:27:42.150Z,4.30
2018-11-04T02:30:12.927Z,4.27
2018-11-04T02:32:41.372Z,4.25
2018-11-04T02:35:09.622Z,4.23
2018-11-04T02:37:37.772Z,4.23
2018-11-04T02:40:05.954Z,4.31
2018-11-04T02:42:34.141Z,4.32
2018-11-04T02:45:02.273Z,4.30
2018-11-04T02:47:30.421Z,4.40
2018-11-04T02:49:58.586Z,4.40
2018-11-04T02:52:26.729Z,4.38
2018-11-04T02:54:54.848Z,4.36
2018-11-04T02:57:23.005Z,4.29
2018-11-04T02:59:51.125Z,4.32
2018-11-04T03:02:19.269Z,4.26
2018-11-04T03:04:47.429Z,4.33
2018-11-04T03:07:15.529Z,4.36
2018-11-04T03:09:43.683Z,4.32
2018-11-04T03:12:11.805Z,4.25
2018-11-04T03:14:39.937Z,4.25
2018-11-04T03:17:08.114Z,4.27
2018-11-04T03:19:36.277Z,4.30
2018-11-04T03:22:04.863Z,4.35
2018-11-04T03:24:33.144Z,4.34
2018-11-04T03:27:01.158Z,4.37
2018-11-04T03:29:29.317Z,4.34
2018-11-04T03:31:57.473Z,4.37
2018-11-04T03:34:25.627Z,4.25
2018-11-04T03:36:53.773Z,4.26
2018-11-04T03:39:21.930Z,4.25
2018-11-04T03:41:50.070Z,4.26
2018-11-04T03:44:18.220Z,4.25
2018-11-04T03:46:46.369Z,4.18
2018-11-04T03:49:14.860Z,4.27
2018-11-04T03:51:42.986Z,4.38
2018-11-04T03:54:11.125Z,4.35
2018-11-04T03:56:39.298Z,4.38
2018-11-04T03:59:07.499Z,4.45
2018-11-04T04:01:35.653Z,4.50
2018-11-04T04:04:03.797Z,4.53
2018-11-04T04:06:31.950Z,4.59
2018-11-04T04:09:00.100Z,4.55
2018-11-04T04:11:28.256Z,4.62
2018-11-04T04:13:56.389Z,4.65
2018-11-04T04:16:24.549Z,4.65
2018-11-04T04:18:52.722Z,4.69
2018-11-04T04:21:21.597Z,4.76
2018-11-04T04:23:49.717Z,4.73
2018-11-04T04:26:17.861Z,4.83
2018-11-04T04:28:45.985Z,4.89
2018-11-04T04:31:14.113Z,4.88
2018-11-04T04:33:42.508Z,4.98
2018-11-04T04:36:10.599Z,4.98
2018-11-04T04:38:38.745Z,4.99
2018-11-04T04:41:07.013Z,5.09
2018-11-04T04:43:35.197Z,5.08
2018-11-04T04:46:03.331Z,5.15
2018-11-04T04:48:31.469Z,5.25
2018-11-04T04:50:59.602Z,5.32
2018-11-04T04:53:27.724Z,5.33
2018-11-04T04:55:57.153Z,5.34
2018-11-04T04:58:25.330Z,5.45
2018-11-04T05:00:54.067Z,5.48
2018-11-04T05:03:22.564Z,5.51
2018-11-04T05:05:50.709Z,5.51
2018-11-04T05:08:18.825Z,5.53
2018-11-04T05:10:46.925Z,5.54
2018-11-04T05:13:15.064Z,5.52
2018-11-04T05:15:43.211Z,5.54
2018-11-04T05:18:11.347Z,5.50
2018-11-04T05:20:39.458Z,5.53
2018-11-04T05:23:07.585Z,5.54
2018-11-04T05:25:35.766Z,5.54
2018-11-04T05:28:03.906Z,5.52
2018-11-04T05:30:32.060Z,5.52
2018-11-04T05:33:00.183Z,5.55
2018-11-04T05:35:28.332Z,5.55
2018-11-04T05:37:56.498Z,5.59
2018-11-04T05:40:24.634Z,5.57
2018-11-04T05:42:52.772Z,5.49
2018-11-04T05:45:20.937Z,5.52
2018-11-04T05:47:49.066Z,5.56
2018-11-04T05:50:17.221Z,5.47
2018-11-04T05:52:45.372Z,5.42
2018-11-04T05:55:13.509Z,5.49
2018-11-04T05:57:41.689Z,5.51
2018-11-04T06:00:10.473Z,5.50
2018-11-04T06:02:38.653Z,5.52
2018-11-04T06:05:07.760Z,5.50
2018-11-04T06:07:35.896Z,5.44
2018-11-04T06:10:04.070Z,5.41
2018-11-04T06:12:32.230Z,5.38
2018-11-04T06:15:00.353Z,5.36
2018-11-04T06:17:28.508Z,5.38
2018-11-04T06:19:56.676Z,5.30
2018-11-04T06:22:24.901Z,5.33
2018-11-04T06:24:53.045Z,5.37
2018-11-04T06:27:21.141Z,5.35
2018-11-04T06:29:49.284Z,5.33
2018-11-04T06:32:17.425Z,5.39
2018-11-04T06:34:45.690Z,5.40
2018-11-04T06:37:13.685Z,5.45
2018-11-04T06:39:41.874Z,5.50
2018-11-04T06:42:10.003Z,5.51
2018-11-04T06:44:38.193Z,5.51
2018-11-04T06:47:07.335Z,5.53
2018-11-04T06:49:35.470Z,5.53
2018-11-04T06:52:03.573Z,5.61
2018-11-04T06:54:31.701Z,5.63
2018-11-04T06:56:59.845Z,5.70
2018-11-04T06:59:28.004Z,5.73
2018-11-04T07:01:56.133Z,5.64
2018-11-04T07:04:25.596Z,5.72
2018-11-04T07:06:53.728Z,5.71
2018-11-04T07:09:21.917Z,5.73
2018-11-04T07:11:50.424Z,5.76
2018-11-04T07:14:19.133Z,5.74
2018-11-04T07:16:47.274Z,5.77
2018-11-04T07:19:15.895Z,5.78
2018-11-04T07:21:44.046Z,5.88
2018-11-04T07:24:12.233Z,5.92
2018-11-04T07:26:40.399Z,5.98
2018-11-04T07:29:09.437Z,5.98
2018-11-04T07:31:37.576Z,6.02
2018-11-04T07:34:06.141Z,6.04
2018-11-04T07:36:34.489Z,6.04
2018-11-04T07:39:02.618Z,6.00
2018-11-04T07:41:30.794Z,6.10
2018-11-04T07:43:58.934Z,6.10
2018-11-04T07:46:27.073Z,6.19
2018-11-04T07:48:55.255Z,6.28
2018-11-04T07:51:23.405Z,6.29
2018-11-04T07:53:51.587Z,6.26
2018-11-04T07:56:19.685Z,6.19
2018-11-04T07:58:47.832Z,6.12
2018-11-04T08:01:15.996Z,6.14
2018-11-04T08:03:44.136Z,6.14
2018-11-04T08:06:12.289Z,6.16
2018-11-04T08:08:40.416Z,6.22
2018-11-04T08:11:08.558Z,6.27
2018-11-04T08:13:36.752Z,6.32
2018-11-04T08:16:05.079Z,6.22
2018-11-04T08:18:33.228Z,6.31
2018-11-04T08:21:01.365Z,6.42
2018-11-04T08:23:29.497Z,6.37
2018-11-04T08:25:57.613Z,6.36
2018-11-04T08:28:25.754Z,6.32
2018-11-04T08:30:53.888Z,6.26
2018-11-04T08:33:22.026Z,6.22
2018-11-04T08:35:50.203Z,6.23
2018-11-04T08:38:18.317Z,6.26
2018-11-04T08:40:46.550Z,6.29
2018-11-04T08:43:14.678Z,6.24
2018-11-04T08:45:42.859Z,6.29
2018-11-04T08:48:10.951Z,6.37
2018-11-04T08:50:39.077Z,6.37
2018-11-04T08:53:07.269Z,6.39
2018-11-04T08:55:35.371Z,6.43
2018-11-04T08:58:03.519Z,6.43
2018-11-04T09:00:31.638Z,6.45
2018-11-04T09:02:59.781Z,6.50
2018-11-04T09:05:27.899Z,6.52
2018-11-04T09:07:56.049Z,6.48
2018-11-04T09:10:24.178Z,6.50
2018-11-04T09:12:52.312Z,6.46
2018-11-04T09:15:20.422Z,6.45
2018-11-04T09:17:48.600Z,6.50
2018-11-04T09:20:17.413Z,6.50
2018-11-04T09:22:45.581Z,6.49
2018-11-04T09:25:14.061Z,6.55
2018-11-04T09:27:42.217Z,6.56
2018-11-04T09:30:12.883Z,6.67
2018-11-04T09:32:41.037Z,6.73
2018-11-04T09:35:10.152Z,6.67
2018-11-04T09:37:37.977Z,6.69
2018-11-04T09:40:07.438Z,6.72
2018-11-04T09:42:35.629Z,6.81
2018-11-04T09:45:03.778Z,6.85
2018-11-04T09:47:31.994Z,7.00
2018-11-04T09:50:00.228Z,7.04
2018-11-04T09:52:28.321Z,7.11
2018-11-04T09:54:56.433Z,7.09
2018-11-04T09:57:24.613Z,7.12
2018-11-04T09:59:52.781Z,7.19
2018-11-04T10:02:20.921Z,7.17
2018-11-04T10:04:49.070Z,7.17
2018-11-04T10:07:17.289Z,7.30
2018-11-04T10:09:45.424Z,7.27
2018-11-04T10:12:13.565Z,7.17
2018-11-04T10:14:41.714Z,7.26
2018-11-04T10:17:09.842Z,7.36
2018-11-04T10:19:38.070Z,7.41
2018-11-04T10:22:06.160Z,7.48
2018-11-04T10:24:34.283Z,7.45
2018-11-04T10:27:02.418Z,7.56
2018-11-04T10:29:30.533Z,7.62
2018-11-04T10:31:58.672Z,7.70
2018-11-04T10:34:26.829Z,7.77
2018-11-04T10:36:54.979Z,7.83
2018-11-04T10:39:23.097Z,7.73
2018-11-04T10:41:51.231Z,7.82
2018-11-04T10:44:19.376Z,7.81
2018-11-04T10:46:47.526Z,7.93
2018-11-04T10:49:15.673Z,8.00
2018-11-04T10:51:43.798Z,8.03
2018-11-04T10:54:11.965Z,8.05
2018-11-04T10:56:40.110Z,8.14
2018-11-04T10:59:08.276Z,8.18
2018-11-04T11:01:36.471Z,8.31
2018-11-04T11:04:04.741Z,8.39
2018-11-04T11:06:32.879Z,8.47
2018-11-04T11:09:01.058Z,8.52
2018-11-04T11:11:29.241Z,8.47
2018-11-04T11:13:57.384Z,8.55
2018-11-04T11:16:25.530Z,8.54
2018-11-04T11:18:53.675Z,8.57
2018-11-04T11:21:21.811Z,8.55
2018-11-04T11:23:49.941Z,8.63
2018-11-04T11:26:18.127Z,8.58
2018-11-04T11:28:46.263Z,8.69
2018-11-04T11:31:14.401Z,8.70
2018-11-04T11:33:42.781Z,8.64
2018-11-04T11:36:10.909Z,8.61
2018-11-04T11:38:39.078Z,8.61
2018-11-04T11:41:07.195Z,8.63
2018-11-04T11:43:35.341Z,8.72
2018-11-04T11:46:03.480Z,8.83
2018-11-04T11:48:31.640Z,8.91
2018-11-04T11:50:59.737Z,9.02
2018-11-04T11:53:27.885Z,9.08
2018-11-04T11:55:56.042Z,9.08
2018-11-04T11:58:24.198Z,9.06
2018-11-04T12:00:52.582Z,9.00
2018-11-04T12:03:20.715Z,9.05
2018-11-04T12:05:48.847Z,9.15
2018-11-04T12:08:16.993Z,9.27
2018-11-04T12:10:45.161Z,9.38
2018-11-04T12:13:13.318Z,9.50
2018-11-04T12:15:41.483Z,9.41
2018-11-04T12:18:09.669Z,9.44
2018-11-04T12:20:38.007Z,9.55
2018-11-04T12:23:06.147Z,9.62
2018-11-04T12:25:34.364Z,9.67
2018-11-04T12:28:02.565Z,9.58
2018-11-04T12:30:30.733Z,9.70
2018-11-04T12:32:58.877Z,9.62
2018-11-04T12:35:27.228Z,9.76
2018-11-04T12:37:55.227Z,9.75
2018-11-04T12:40:23.393Z,9.81
2018-11-04T12:42:51.574Z,9.82
2018-11-04T12:45:19.716Z,9.51
2018-11-04T12:47:47.885Z,9.47
2018-11-04T12:50:16.056Z,9.53
2018-11-04T12:52:44.240Z,9.57
2018-11-04T12:55:12.420Z,9.60
2018-11-04T12:57:40.660Z,9.69
2018-11-04T13:00:11.435Z,9.65
2018-11-04T13:02:39.728Z,9.63
2018-11-04T13:05:08.904Z,9.64
2018-11-04T13:07:37.073Z,9.64
2018-11-04T13:10:06.795Z,9.67
2018-11-04T13:12:34.962Z,9.74
2018-11-04T13:15:03.122Z,9.82
2018-11-04T13:17:31.349Z,9.75
2018-11-04T13:19:59.520Z,9.78
2018-11-04T13:22:27.889Z,9.74
2018-11-04T13:24:56.065Z,9.63
2018-11-04T13:27:24.219Z,9.58
2018-11-04T13:29:52.429Z,9.61
2018-11-04T13:32:20.575Z,9.64
2018-11-04T13:34:48.784Z,9.61
2018-11-04T13:37:16.933Z,9.50
2018-11-04T13:39:45.098Z,9.62
2018-11-04T13:42:13.274Z,9.67
2018-11-04T13:44:41.371Z,9.70
2018-11-04T13:47:09.510Z,9.72
2018-11-04T13:49:37.617Z,9.71
2018-11-04T13:52:05.765Z,9.73
2018-11-04T13:54:34.106Z,9.71
2018-11-04T13:57:02.284Z,9.60
2018-11-04T13:59:30.446Z,9.72
2018-11-04T14:01:58.590Z,9.79
2018-11-04T14:04:26.734Z,9.81
2018-11-04T14:06:54.902Z,9.82
2018-11-04T14:09:23.064Z,9.91
2018-11-04T14:11:51.191Z,9.89
2018-11-04T14:14:19.339Z,9.91
2018-11-04T14:16:47.486Z,9.93
2018-11-04T14:19:15.649Z,9.93
2018-11-04T14:21:43.858Z,9.91
2018-11-04T14:24:12.024Z,9.87
2018-11-04T14:26:40.193Z,9.87
2018-11-04T14:29:08.345Z,9.75
2018-11-04T14:31:36.547Z,9.80
2018-11-04T14:34:04.842Z,9.91
2018-11-04T14:36:33.019Z,9.94
2018-11-04T14:39:01.225Z,9.97
2018-11-04T14:41:29.448Z,9.92
2018-11-04T14:43:57.622Z,9.90
2018-11-04T14:46:25.790Z,9.83
2018-11-04T14:48:53.961Z,9.82
2018-11-04T14:51:22.097Z,9.81
2018-11-04T14:53:51.424Z,9.75
2018-11-04T14:56:22.770Z,9.84
2018-11-04T14:58:51.065Z,9.86
2018-11-04T15:01:19.401Z,9.82
2018-11-04T15:03:47.530Z,9.79
2018-11-04T15:06:15.745Z,9.75
2018-11-04T15:08:43.976Z,9.72
2018-11-04T15:11:12.133Z,9.82
2018-11-04T15:13:41.465Z,9.80
2018-11-04T15:16:09.617Z,9.79
2018-11-04T15:18:37.956Z,9.76
2018-11-04T15:21:06.103Z,9.80
2018-11-04T15:23:34.230Z,9.72
2018-11-04T15:26:02.456Z,9.59
2018-11-04T15:28:30.606Z,9.63
2018-11-04T15:30:58.797Z,9.59
2018-11-04T15:33:26.995Z,9.65
2018-11-04T15:35:55.102Z,9.64
2018-11-04T15:38:23.320Z,9.68
2018-11-04T15:40:51.468Z,9.68
2018-11-04T15:43:19.717Z,9.67
2018-11-04T15:45:47.922Z,9.69
2018-11-04T15:53:15.961Z,9.66
2018-11-04T15:55:44.200Z,9.60
2018-11-04T15:58:12.418Z,9.61
2018-11-04T16:00:40.590Z,9.67
2018-11-04T16:03:08.729Z,9.68
2018-11-04T16:05:36.989Z,9.67
2018-11-04T16:08:05.967Z,9.66
2018-11-04T16:10:34.231Z,9.69
2018-11-04T16:13:02.473Z,9.76
2018-11-04T16:15:30.725Z,9.77
2018-11-04T16:17:58.939Z,9.80
2018-11-04T16:20:27.059Z,9.74
2018-11-04T16:22:55.259Z,9.79
2018-11-04T16:25:23.454Z,9.79
2018-11-04T16:27:51.653Z,9.77
2018-11-04T16:30:19.885Z,9.81
2018-11-04T16:32:48.290Z,9.75
2018-11-04T16:35:16.452Z,9.80
2018-11-04T16:37:45.390Z,9.81
2018-11-04T16:40:13.482Z,9.79
2018-11-04T16:42:41.617Z,9.83
2018-11-04T16:45:12.343Z,9.85
2018-11-04T16:47:40.790Z,9.90
2018-11-04T16:50:09.894Z,9.91
2018-11-04T16:52:38.030Z,9.82
2018-11-04T16:55:06.939Z,9.81
2018-11-04T16:57:35.093Z,9.81
2018-11-04T17:00:03.237Z,9.81
2018-11-04T17:02:31.485Z,9.81
2018-11-04T17:04:59.826Z,9.79
2018-11-04T17:07:28.062Z,9.71
2018-11-04T17:09:56.359Z,9.65
2018-11-04T17:12:24.541Z,9.67
2018-11-04T17:14:52.791Z,9.73
2018-11-04T17:17:21.110Z,9.66
2018-11-04T17:19:49.306Z,9.63
2018-11-04T17:22:17.519Z,9.61
2018-11-04T17:24:45.674Z,9.62
2018-11-04T17:27:13.841Z,9.61
2018-11-04T17:29:42.119Z,9.62
2018-11-04T17:32:10.326Z,9.62
2018-11-04T17:34:38.562Z,9.67
2018-11-04T17:37:07.985Z,9.68
2018-11-04T17:39:36.274Z,9.65
2018-11-04T17:42:04.743Z,9.65
2018-11-04T17:44:33.077Z,9.62
2018-11-04T17:47:01.200Z,9.67
2018-11-04T17:49:29.353Z,9.67
2018-11-04T17:51:57.513Z,9.66
2018-11-04T17:54:25.690Z,9.67
2018-11-04T17:56:54.041Z,9.65
2018-11-04T17:59:22.205Z,9.68
2018-11-04T18:01:50.366Z,9.66
2018-11-04T18:04:18.510Z,9.65
2018-11-04T18:06:46.689Z,9.70
2018-11-04T18:09:14.837Z,9.66
2018-11-04T18:11:43.017Z,9.62
2018-11-04T18:14:11.183Z,9.65
2018-11-04T18:16:39.405Z,9.62
2018-11-04T18:19:07.587Z,9.67
2018-11-04T18:21:35.928Z,9.67
2018-11-04T18:24:04.126Z,9.66
2018-11-04T18:26:32.309Z,9.59
2018-11-04T18:29:00.399Z,9.63
2018-11-04T18:31:28.558Z,9.58
2018-11-04T18:38:56.675Z,9.58
2018-11-04T18:41:24.848Z,9.53
2018-11-04T18:43:54.421Z,9.44
2018-11-04T18:46:22.309Z,9.51
2018-11-04T18:48:50.462Z,9.53
2018-11-04T18:51:18.581Z,9.55
2018-11-04T18:53:46.769Z,9.53
2018-11-04T18:56:15.063Z,9.61
2018-11-04T18:58:43.182Z,9.60
2018-11-04T19:01:11.313Z,9.48
2018-11-04T19:03:40.337Z,9.56
2018-11-04T19:06:08.502Z,9.59
2018-11-04T19:08:36.613Z,9.68
2018-11-04T19:11:05.105Z,9.60
2018-11-04T19:13:33.252Z,9.65
2018-11-04T19:16:01.401Z,9.63
2018-11-04T19:18:29.590Z,9.66
2018-11-04T19:20:57.749Z,9.67
2018-11-04T19:23:26.336Z,9.64
2018-11-04T19:25:54.510Z,9.68
2018-11-04T19:28:23.366Z,9.59
2018-11-04T19:30:51.616Z,9.70
2018-11-04T19:33:19.855Z,9.67
2018-11-04T19:35:47.997Z,9.76
2018-11-04T19:38:16.123Z,9.73
2018-11-04T19:40:44.313Z,9.66
2018-11-04T19:43:12.565Z,9.66
2018-11-04T19:45:40.596Z,9.64
2018-11-04T19:48:08.749Z,9.67
2018-11-04T19:50:36.870Z,9.67
2018-11-04T19:53:05.043Z,9.70
2018-11-04T19:55:33.152Z,9.72
2018-11-04T19:58:01.300Z,9.72
2018-11-04T20:00:29.500Z,9.70
2018-11-04T20:02:57.689Z,9.67
2018-11-04T20:05:25.887Z,9.70
2018-11-04T20:07:53.957Z,9.61
2018-11-04T20:10:22.121Z,9.51
2018-11-04T20:12:55.657Z,9.52
2018-11-04T20:15:23.817Z,9.51
2018-11-04T20:17:51.971Z,9.52
2018-11-04T20:20:24.597Z,9.52
2018-11-04T20:22:52.713Z,9.47
2018-11-04T20:25:26.354Z,9.52
2018-11-04T20:27:54.459Z,9.54
2018-11-04T20:30:22.587Z,9.52
2018-11-04T20:32:56.049Z,9.56
2018-11-04T20:35:24.185Z,9.49
2018-11-04T20:37:52.364Z,9.51
2018-11-04T20:40:25.968Z,9.48
2018-11-04T20:42:54.128Z,9.48
2018-11-04T20:45:22.291Z,9.40
2018-11-04T20:47:55.701Z,9.47
2018-11-04T20:50:29.224Z,9.60
2018-11-04T20:52:57.404Z,9.57
2018-11-04T20:55:29.717Z,9.57
2018-11-04T20:57:58.592Z,9.49
2018-11-04T21:00:26.800Z,9.59
2018-11-04T21:02:55.260Z,9.58
2018-11-04T21:05:23.441Z,9.62
2018-11-04T21:07:51.819Z,9.64
2018-11-04T21:10:19.975Z,9.72
2018-11-04T21:12:48.147Z,9.72
2018-11-04T21:15:16.313Z,9.68
2018-11-04T21:17:44.466Z,9.68
2018-11-04T21:20:12.641Z,9.63
2018-11-04T21:22:40.776Z,9.66
2018-11-04T21:25:09.004Z,9.67
2018-11-04T21:27:37.114Z,9.73
2018-11-04T21:30:07.921Z,9.72
2018-11-04T21:32:36.207Z,9.73
2018-11-04T21:35:04.462Z,9.75
2018-11-04T21:37:32.661Z,9.79
2018-11-04T21:40:00.822Z,9.87
2018-11-04T21:42:29.138Z,9.81
2018-11-04T21:44:57.177Z,9.81
2018-11-04T21:47:25.313Z,9.76
2018-11-04T21:49:53.458Z,9.68
2018-11-04T21:52:21.595Z,9.70
2018-11-04T21:54:49.729Z,9.76
2018-11-04T21:57:17.889Z,9.73
2018-11-04T21:59:46.009Z,9.77
2018-11-04T22:02:14.203Z,9.79
2018-11-04T22:04:42.347Z,9.78
2018-11-04T22:07:10.469Z,9.80
2018-11-04T22:09:38.660Z,9.76
2018-11-04T22:12:06.816Z,9.70
2018-11-04T22:14:34.930Z,9.70
2018-11-04T22:17:03.110Z,9.78
2018-11-04T22:19:31.249Z,9.78
2018-11-04T22:21:59.410Z,9.78
2018-11-04T22:24:27.590Z,9.74
2018-11-04T22:26:55.741Z,9.64
2018-11-04T22:29:23.867Z,9.75
2018-11-04T22:31:52.013Z,9.75
2018-11-04T22:34:20.156Z,9.70
2018-11-04T22:36:48.310Z,9.64
2018-11-04T22:39:16.529Z,9.72
2018-11-04T22:41:44.665Z,9.78
2018-11-04T22:44:12.870Z,9.75
2018-11-04T22:46:41.460Z,9.78
2018-11-04T22:49:09.849Z,9.79
2018-11-04T22:51:38.223Z,9.77
2018-11-04T22:54:06.369Z,9.80
2018-11-04T22:56:34.556Z,9.78
2018-11-04T22:59:02.673Z,9.78
2018-11-04T23:01:30.857Z,9.81
2018-11-04T23:03:59.004Z,9.83
2018-11-04T23:06:27.825Z,9.78
2018-11-04T23:08:55.999Z,9.68
2018-11-04T23:11:24.141Z,9.68
2018-11-04T23:13:52.284Z,9.76
2018-11-04T23:16:20.458Z,9.79
2018-11-04T23:18:48.722Z,9.75
2018-11-04T23:21:16.814Z,9.75
2018-11-04T23:23:44.948Z,9.69
2018-11-04T23:26:13.079Z,9.76
2018-11-04T23:28:41.235Z,9.85
2018-11-04T23:31:09.397Z,9.90
2018-11-04T23:33:37.598Z,9.88
2018-11-04T23:36:05.787Z,9.85
2018-11-04T23:38:33.947Z,9.79
2018-11-04T23:41:02.073Z,9.78
2018-11-04T23:43:30.225Z,9.77
2018-11-04T23:45:58.382Z,9.78
2018-11-04T23:48:26.568Z,9.77
2018-11-04T23:50:54.697Z,9.84
2018-11-04T23:53:22.841Z,9.75
2018-11-04T23:55:50.977Z,9.74
2018-11-04T23:58:19.166Z,9.85
